Terminal Aerodrome Forecast
Issued by NWS

Home | Current Version | Previous Version | Text Only | Print | Product List | Glossary On
Versions: 1 2 3 4 5 6 7 8 9 10 11 12 13 14 15 16 17 18 19 20 21 22 23
267
FTUS42 KFFC 280817 AAB
TAFFTY
TAF AMD
KFTY 280817Z 2808/2906 24002KT P6SM FEW250
      TEMPO 2808/2810 3SM BR SCT002
     FM281400 28006KT P6SM SCT050
     FM281800 27010KT P6SM FEW060
     FM290300 28004KT P6SM SKC=

USA.gov is the U.S. government's official web portal to all federal, state and local government web resources and services.